EGKKEGPH

Guest
Details From EGKK - London Gatwick
To EGPH - Edinburgh
Flight Number -
Tags generated
Created
Modified
Stats Distance 311 nm / 576 km
Max Altitude 35,000 ft / 10,668 m
Waypoints 7
Social Downloads 0
Likes 0
Share VATSIM

Download

Looking for another format? Having issues loading an existing format? Contact us
Advertisement - Login to hide

Notes

Basic altitude profile: - Ascent Rate: 2500ft/min - Ascent Speed: 250kts - Cruise Altitude: 30000ft - Cruise Speed: 420kts - Descent Rate: 1500ft/min - Descent Speed: 250kts Options: - Use NATs: yes - Use PACOTS: yes - Use low airways: yes - Use high airways: yes

Route

EGKK SAPCO N57 TNT T420 POL UN601 RIBEL N601 SHAPP EGPH

ID Type Via Altitude Latitude Longitude Leg Dist Tot Dist Heading (true) Name
O EGKK APT - 0 ft / 0 m 51.14875˚ -0.19247˚ - 0 nm - London Gatwick
SAPCO FIX - 33,500 ft / 10,211 m 52.54028˚ -1.35694˚ 94 nm 94 nm 333° / 332° -
TNT VOR N57 (AWY-LO) 35,000 ft / 10,668 m 53.05389˚ -1.67000˚ 32 nm 126 nm 340° / 340° TRENT VOR-DME
POL VOR T420 (AWY-LO) 29,900 ft / 9,114 m 53.74389˚ -2.10333˚ 44 nm 171 nm 340° / 339° POLE HILL VOR-DME
RIBEL FIX UN601 (AWY-HI) 26,100 ft / 7,955 m 54.01611˚ -2.28972˚ 17 nm 188 nm 338° / 338° -
SHAPP FIX N601 (AWY-LO) 19,400 ft / 5,913 m 54.50000˚ -2.62722˚ 31 nm 220 nm 338° / 338° -
O EGPH APT - 0 ft / 0 m 55.94869˚ -3.35972˚ 90 nm 310 nm 344° / 344° Edinburgh

Altitude Profile

Advertisement - Login to hide

Weather


0- 5 10 15 20 25 30 35+ Temperature / ° C

Clouds and Precipitation
Forecast for 2018-02-22 18:00 UTC. Updated an hour ago

Ground ~20,000 ft ~40,000 ft Winds

EGKK

Details ICAO EGKK (LGW)
Name London Gatwick
Region United Kingdom
Timezone Europe/London (UTC+0.0)
Stats Elevation 196 ft / 60 m (AMSL)
Location 51.148753° -0.192472°
Runways 2
Magnetic Variation 0.404° W

METAR

EGKK 221620Z 06012KT CAVOK 04/M04 Q1022

Decode

TAF

TAF EGKK 221059Z 2212/2318 08008KT 9999 SCT030= TAF EGLL 221054Z 2212/2318 07008KT 9999 SCT030 TEMPO 2212/2308 8000

Decode

Departure Runways

ID Width Length Bearing (true) Bearing (mag) Surface Threshold Offset Overrun Length
08L 148 ft / 45 m 8,377 ft / 2,553 m 77.69° 78.09° Asphalt 1,053 ft / 321 m 0 ft / 0 m
08R 148 ft / 45 m 10,341 ft / 3,152 m 77.59° 77.99° Asphalt 1,289 ft / 393 m 0 ft / 0 m
26L 148 ft / 45 m 10,341 ft / 3,152 m 257.63° 258.03° Asphalt 879 ft / 268 m 600 ft / 183 m
26R 148 ft / 45 m 8,377 ft / 2,553 m 257.71° 258.11° Asphalt 1,365 ft / 416 m 0 ft / 0 m

EGPH

Details ICAO EGPH (EDI)
Name Edinburgh
Region United Kingdom
Timezone Europe/London (UTC+0.0)
Stats Elevation 135 ft / 41 m (AMSL)
Location 55.948685° -3.359718°
Runways 2
Magnetic Variation 2.266° W

METAR

EGPH 221620Z 19008KT 9999 BKN035 05/M01 Q1023

Decode

TAF

TAF EGPH 221101Z 2212/2312 18008KT 9999 FEW025 PROB40 TEMPO 2300/2308 7000

Decode

Destination Runways

ID Width Length Bearing (true) Bearing (mag) Surface Threshold Offset Overrun Length
06 144 ft / 44 m 8,366 ft / 2,550 m 58.80° 61.07° Asphalt 705 ft / 215 m 200 ft / 61 m
12 151 ft / 46 m 5,878 ft / 1,792 m 118.67° 120.94° Asphalt 0 ft / 0 m 0 ft / 0 m
24 144 ft / 44 m 8,366 ft / 2,550 m 238.83° 241.10° Asphalt 679 ft / 207 m 207 ft / 63 m
30 151 ft / 46 m 5,878 ft / 1,792 m 298.69° 300.96° Asphalt 194 ft / 59 m 253 ft / 77 m

Approach Navaids

Runway Type Ident Frequency Range Bearing (true) Bearing (mag) Slope Elevation
06 Localiser IVG 108.90 MHz 18 nm / 33 km 58.83° 61.10° - 110 ft / 34 m (AMSL)
06 Glidescope IVG 108.90 MHz 10 nm / 19 km 58.81° 61.08° 3.00° 135 ft / 41 m (AMSL)
06 DME IVG 108.90 MHz 18 nm / 33 km - - - 123 ft / 37 m (AMSL)
24 Localiser ITH 108.90 MHz 18 nm / 33 km 238.79° 241.05° - 110 ft / 34 m (AMSL)
24 Glidescope ITH 108.90 MHz 10 nm / 19 km 238.81° 241.08° 3.00° 135 ft / 41 m (AMSL)
24 DME ITH 108.90 MHz 18 nm / 33 km - - - 123 ft / 37 m (AMSL)

Popular Alternatives